Overton RPC :: 200B - Oak Field, TN

liberation: 2020-10-12  08:30     latitude: 35.682108     longitude: -88.771665 22 birds
# LOFT PRING MILES ARRIVAL SPEED ToWin
1 VALHALLA LOFTS IF20-VALH-0021 200.91 2020-10-12 12:47:06.376 1375.316 00:00:00
2 VALHALLA LOFTS IF20-ORP-0017 200.91 2020-10-12 12:47:09.555 1375.033 00:00:03
3 VALHALLA LOFTS IF20-ORP-0004 200.91 2020-10-12 12:47:12.368 1374.782 00:00:06
4 VALHALLA LOFTS IF20-VALH-0030 200.91 2020-10-12 12:47:38.641 1372.445 00:00:32
5 VALHALLA LOFTS IF20-VALH-0010 200.91 2020-10-12 12:47:44.201 1371.952 00:00:38
6 VALHALLA LOFTS IF20-VALH-0045 200.91 2020-10-12 12:47:45.114 1371.871 00:00:39
7 VALHALLA LOFTS IF20-VALH-0039 200.91 2020-10-12 12:47:50.782 1371.368 00:00:44
8 VALHALLA LOFTS IF20-VALH-0038 200.91 2020-10-12 12:47:59.763 1370.573 00:00:53
9 VALHALLA LOFTS IF20-VALH-0029 200.91 2020-10-12 12:48:00.871 1370.475 00:00:54
10 VALHALLA LOFTS IF20-VALH-0031 200.91 2020-10-12 12:48:25.023 1368.340 00:01:19
11 VALHALLA LOFTS IF20-VALH-0022 200.91 2020-10-12 12:49:18.847 1363.606 00:02:12
12 VALHALLA LOFTS IF20-VALH-0009 200.91 2020-10-12 12:50:49.150 1355.738 00:03:43
13 LET IT GO LOFT IF20-ORP-0119 223.954 2020-10-12 13:39:50.336 1272.141 00:23:15
14 VALHALLA LOFTS IF20-ORP-0005 200.91 2020-10-12 15:18:03.806 866.538 02:30:57
15 LET IT GO LOFT IF20-ORP-0123 223.954 2020-10-12 17:15:32.603 750.002 03:58:57
16 VALHALLA LOFTS IF20-VALH-0024 200.91 2020-10-12 16:41:39.288 719.209 03:54:33
17 LET IT GO LOFT IF20-ORP-0141 223.954 2020-10-13 08:54:24.007 513.863 08:00:27
18 VALHALLA LOFTS IF20-VALH-0014 200.91 2020-10-13 09:44:58.930 432.471 09:20:32
19 VALHALLA LOFTS IF20-ORP-0003 200.91 2020-10-13 14:01:11.529 329.287 13:36:44
LET IT GO LOFT IF20-ORP-0128 0 0000-00-00 00:00:00.000 0.000 00:00:00
LET IT GO LOFT IF20-ORP-0138 0 0000-00-00 00:00:00.000 0.000 00:00:00
VALHALLA LOFTS IF20-VALH-0094 0 0000-00-00 00:00:00.000 0.000 00:00:00